Time;durP1;ratioP1;P1;durP2;ratioP2;P2;SDS_P1;SDS_P2;PMS_P1;PMS_P2;Temp;Humidity;BMP_temperature;BMP_pressure;BME280_temperature;BME280_humidity;BME280_pressure;Samples;Min_cycle;Max_cycle;Signal;HPM_P1;HPM_P2
2021/08/22 17:21:07;;;;;;;;;;;20.60;57.40;;;;;;5111815;27;19924;-89
2021/08/22 17:23:33;;;;;;;;;;;20.20;60.10;;;;;;5110565;28;20006;-87
2021/08/22 17:25:58;;;;;;;;;;;20.20;61.90;;;;;;5112333;28;19915;-88
2021/08/22 17:28:24;;;;;;;;;;;20.20;63.10;;;;;;5111980;28;20268;-88
2021/08/22 17:30:49;;;;;;;;;;;20.20;63.70;;;;;;5112231;28;19908;-88
2021/08/22 17:33:15;;;;;;;;;;;20.20;64.30;;;;;;5112161;28;20352;-88
2021/08/22 17:35:41;;;;;;;;;;;20.20;64.70;;;;;;5112017;28;19915;-89
2021/08/22 17:38:06;;;;;;;;;;;20.20;64.90;;;;;;5110569;28;19908;-89
2021/08/22 17:40:32;;;;;;;;;;;20.20;65.10;;;;;;5111702;28;20060;-88
2021/08/22 17:42:58;;;;;;;;;;;20.20;65.50;;;;;;5110166;28;19912;-87
2021/08/22 17:45:24;;;;;;;;;;;20.30;65.50;;;;;;5111992;28;19912;-88
2021/08/22 17:47:49;;;;;;;;;;;20.20;65.50;;;;;;5111933;28;20312;-89
2021/08/22 17:50:15;;;;;;;;;;;20.20;65.70;;;;;;5111550;28;19995;-88
2021/08/22 17:52:41;;;;;;;;;;;20.20;65.80;;;;;;5111856;28;19908;-88
2021/08/22 17:55:07;;;;;;;;;;;20.20;66.10;;;;;;5111498;28;19908;-88
2021/08/22 17:57:32;;;;;;;;;;;20.10;66.30;;;;;;5111372;28;20360;-88
2021/08/22 17:59:58;;;;;;;;;;;20.10;66.60;;;;;;5111580;28;20003;-87
2021/08/22 18:02:24;;;;;;;;;;;20.10;66.80;;;;;;5110076;28;19912;-88
2021/08/22 18:04:49;;;;;;;;;;;20.00;66.50;;;;;;5144402;27;19936;-87
2021/08/22 18:07:15;;;;;;;;;;;20.00;66.80;;;;;;5110014;28;19915;-87
2021/08/22 18:09:41;;;;;;;;;;;20.00;67.10;;;;;;5109898;28;20349;-87
2021/08/22 18:12:10;;;;;;;;;;;19.90;67.30;;;;;;5109898;28;20508;-86
2021/08/22 18:14:39;;;;;;;;;;;19.90;67.50;;;;;;5111094;28;19952;-88
2021/08/22 18:17:06;;;;;;;;;;;19.80;67.50;;;;;;5110580;28;20383;-89
2021/08/22 18:19:31;;;;;;;;;;;19.80;67.60;;;;;;5106864;28;19931;-90
2021/08/22 18:21:57;;;;;;;;;;;19.80;67.80;;;;;;5104912;28;19915;-89
2021/08/22 18:24:22;;;;;;;;;;;19.70;67.80;;;;;;5110496;28;19915;-89
2021/08/22 18:26:49;;;;;;;;;;;19.60;68.00;;;;;;5109217;28;19912;-89
2021/08/22 18:29:14;;;;;;;;;;;19.60;68.10;;;;;;5107740;28;19908;-89
2021/08/22 18:31:42;;;;;;;;;;;19.60;68.40;;;;;;5099942;28;20386;-89
2021/08/22 18:34:08;;;;;;;;;;;19.50;68.60;;;;;;5096778;28;19916;-89
2021/08/22 18:36:33;;;;;;;;;;;19.40;68.80;;;;;;5095332;28;19915;-89
2021/08/22 18:39:00;;;;;;;;;;;19.40;69.10;;;;;;5096548;28;19916;-89
2021/08/22 18:41:26;;;;;;;;;;;19.30;69.20;;;;;;5096269;28;19908;-89
2021/08/22 18:43:51;;;;;;;;;;;19.20;69.60;;;;;;5095169;28;19922;-89
2021/08/22 18:46:19;;;;;;;;;;;19.20;69.80;;;;;;5095159;28;19923;-89
2021/08/22 18:48:45;;;;;;;;;;;19.10;70.10;;;;;;5096482;28;20053;-89
2021/08/22 18:51:10;;;;;;;;;;;19.00;70.10;;;;;;5096359;28;19954;-89
2021/08/22 18:53:36;;;;;;;;;;;19.00;70.20;;;;;;5096469;28;20352;-89
2021/08/22 18:56:02;;;;;;;;;;;18.90;70.60;;;;;;5095625;28;19919;-88
2021/08/22 18:58:27;;;;;;;;;;;18.90;71.10;;;;;;5095418;28;19912;-89
2021/08/22 19:00:53;;;;;;;;;;;18.80;71.30;;;;;;5094032;28;19933;-88
2021/08/22 19:03:18;;;;;;;;;;;18.80;71.10;;;;;;5095812;28;20249;-88
2021/08/22 19:05:44;;;;;;;;;;;18.70;71.40;;;;;;5095295;28;20283;-88
2021/08/22 19:08:13;;;;;;;;;;;18.70;71.60;;;;;;5095231;28;19930;-88
2021/08/22 19:10:40;;;;;;;;;;;18.60;71.90;;;;;;5094215;28;20291;-88
2021/08/22 19:13:09;;;;;;;;;;;18.60;72.20;;;;;;5094722;28;19912;-88
2021/08/22 19:15:36;;;;;;;;;;;18.50;72.40;;;;;;5095761;28;19912;-88
2021/08/22 19:18:01;;;;;;;;;;;18.50;72.60;;;;;;5094920;28;19915;-88
2021/08/22 19:20:27;;;;;;;;;;;18.40;73.00;;;;;;5096108;28;20265;-88
2021/08/22 19:22:52;;;;;;;;;;;18.40;73.40;;;;;;5095890;28;19908;-88
2021/08/22 19:25:18;;;;;;;;;;;18.30;73.60;;;;;;5058079;28;19908;-88
2021/08/22 19:27:44;;;;;;;;;;;18.30;73.80;;;;;;5075907;28;19954;-87
2021/08/22 19:30:10;;;;;;;;;;;18.20;74.00;;;;;;5069536;28;19917;-87
2021/08/22 19:32:35;;;;;;;;;;;18.20;74.30;;;;;;5037852;28;19955;-87
2021/08/22 19:35:01;;;;;;;;;;;18.10;74.40;;;;;;5055742;28;19909;-88
2021/08/22 19:37:26;;;;;;;;;;;18.10;74.70;;;;;;5069535;28;19946;-87
2021/08/22 19:39:54;;;;;;;;;;;18.10;74.80;;;;;;5056160;28;19913;-86
2021/08/22 19:42:20;;;;;;;;;;;18.00;75.00;;;;;;5058261;28;19916;-88
2021/08/22 19:44:45;;;;;;;;;;;18.00;75.60;;;;;;5077027;28;19919;-95
2021/08/22 19:47:11;;;;;;;;;;;17.90;75.50;;;;;;5075737;28;19908;-95
2021/08/22 19:49:36;;;;;;;;;;;17.90;75.60;;;;;;5060461;28;20004;-94
2021/08/22 19:52:04;;;;;;;;;;;17.90;76.00;;;;;;5041267;28;20011;-95
2021/08/22 19:54:29;;;;;;;;;;;17.80;76.30;;;;;;5061938;28;19962;-94
2021/08/22 19:56:55;;;;;;;;;;;17.80;76.50;;;;;;5075808;28;20331;-94
2021/08/22 19:59:20;;;;;;;;;;;17.80;76.50;;;;;;5059295;28;19915;-94
2021/08/22 20:01:46;;;;;;;;;;;17.70;76.60;;;;;;5079758;28;19908;-94
2021/08/22 20:04:11;;;;;;;;;;;17.70;76.90;;;;;;5040102;28;19913;-94
2021/08/22 20:38:41;;;;;;;;;;;16.20;72.60;;;;;;5112714;27;19912;-93
2021/08/22 20:41:08;;;;;;;;;;;16.00;75.70;;;;;;5110995;28;20010;-94
2021/08/22 20:43:34;;;;;;;;;;;16.00;78.10;;;;;;5112146;28;19912;-94
2021/08/22 20:46:00;;;;;;;;;;;16.00;79.80;;;;;;5110294;28;19908;-93
2021/08/22 20:48:26;;;;;;;;;;;16.00;81.00;;;;;;5113187;28;20355;-95
